createdAt,value
2018-12-06T00:04:51.311Z,3.10
2018-12-06T00:09:52.505Z,6.50
2018-12-06T00:15:01.903Z,6.60
2018-12-06T00:20:03.938Z,6.60
2018-12-06T00:25:05.133Z,6.70
2018-12-06T00:30:18.595Z,6.70
2018-12-06T00:35:19.804Z,6.70
2018-12-06T00:40:21.034Z,6.60
2018-12-06T00:45:22.372Z,6.60
2018-12-06T00:50:23.596Z,6.70
2018-12-06T00:55:24.783Z,6.80
2018-12-06T01:00:26.130Z,6.90
2018-12-06T01:05:27.322Z,7.00
2018-12-06T01:10:28.649Z,7.10
2018-12-06T01:15:29.838Z,7.20
2018-12-06T01:20:31.043Z,7.10
2018-12-06T01:25:32.258Z,7.20
2018-12-06T01:30:33.562Z,7.30
2018-12-06T01:35:34.750Z,7.30
2018-12-06T01:40:35.942Z,7.30
2018-12-06T01:45:37.125Z,7.30
2018-12-06T01:50:38.302Z,7.30
2018-12-06T01:55:39.498Z,7.20
2018-12-06T02:00:40.702Z,7.10
2018-12-06T02:05:41.890Z,8.10
2018-12-06T02:10:43.097Z,7.00
2018-12-06T02:21:47.247Z,7.50
2018-12-06T02:26:48.537Z,7.50
2018-12-06T02:31:49.708Z,7.50
2018-12-06T02:36:51.012Z,7.60
2018-12-06T02:41:52.223Z,7.90
2018-12-06T02:46:53.462Z,7.90
2018-12-06T02:51:54.651Z,8.10
2018-12-06T02:56:55.813Z,8.00
2018-12-06T03:01:57.093Z,7.90
2018-12-06T03:06:58.379Z,8.30
2018-12-06T03:11:59.700Z,8.50
2018-12-06T03:17:01.081Z,8.30
2018-12-06T03:22:02.265Z,8.00
2018-12-06T03:27:03.466Z,7.80
2018-12-06T03:32:04.641Z,7.60
2018-12-06T03:37:05.917Z,7.50
2018-12-06T03:42:07.322Z,7.40
2018-12-06T03:47:08.502Z,7.30
2018-12-06T03:52:09.674Z,7.20
2018-12-06T03:57:10.863Z,7.10
2018-12-06T04:02:12.030Z,7.00
2018-12-06T04:07:13.202Z,6.90
2018-12-06T04:12:14.394Z,6.90
2018-12-06T04:17:15.611Z,6.80
2018-12-06T04:22:16.810Z,6.70
2018-12-06T04:27:17.983Z,6.70
2018-12-06T04:32:19.169Z,6.60
2018-12-06T04:37:20.473Z,6.50
2018-12-06T04:42:21.646Z,6.40
2018-12-06T04:47:22.857Z,6.30
2018-12-06T04:52:24.038Z,6.10
2018-12-06T04:57:25.224Z,6.10
2018-12-06T05:02:26.402Z,6.00
2018-12-06T05:07:27.570Z,6.00
2018-12-06T05:12:28.763Z,6.00
2018-12-06T05:17:30.043Z,6.00
2018-12-06T05:22:31.317Z,6.00
2018-12-06T05:27:32.500Z,6.10
2018-12-06T05:32:33.670Z,6.20
2018-12-06T05:37:34.839Z,6.30
2018-12-06T05:42:36.023Z,6.40
2018-12-06T05:47:37.226Z,6.40
2018-12-06T05:52:38.389Z,6.50
2018-12-06T05:57:39.570Z,6.50
2018-12-06T06:02:40.867Z,6.50
2018-12-06T06:07:42.028Z,6.60
2018-12-06T06:12:43.198Z,6.50
2018-12-06T06:17:44.391Z,6.50
2018-12-06T06:22:45.578Z,6.60
2018-12-06T06:27:46.759Z,6.70
2018-12-06T06:32:47.991Z,7.00
2018-12-06T06:37:49.163Z,7.20
2018-12-06T06:42:50.338Z,7.00
2018-12-06T06:47:51.501Z,6.80
2018-12-06T06:52:52.665Z,6.70
2018-12-06T06:57:53.838Z,6.50
2018-12-06T07:02:55.015Z,6.40
2018-12-06T07:07:56.188Z,6.30
2018-12-06T07:12:57.355Z,6.30
2018-12-06T07:17:58.526Z,6.30
2018-12-06T07:23:02.036Z,6.30
2018-12-06T07:28:03.207Z,6.30
2018-12-06T07:33:04.388Z,6.40
2018-12-06T07:38:05.568Z,6.50
2018-12-06T07:43:06.746Z,6.60
2018-12-06T07:48:07.953Z,6.70
2018-12-06T07:53:09.259Z,6.70
2018-12-06T07:58:10.439Z,6.80
2018-12-06T08:03:11.611Z,6.90
2018-12-06T08:08:12.826Z,7.00
2018-12-06T08:13:14.027Z,7.20
2018-12-06T08:18:15.194Z,7.40
2018-12-06T08:23:16.391Z,7.60
2018-12-06T08:28:17.594Z,7.80
2018-12-06T08:33:18.754Z,7.90
2018-12-06T08:38:19.982Z,8.00
2018-12-06T08:43:21.178Z,8.10
2018-12-06T08:48:22.361Z,8.20
2018-12-06T08:53:23.575Z,8.30
2018-12-06T08:58:24.734Z,8.40
2018-12-06T09:03:25.924Z,8.50
2018-12-06T09:08:27.115Z,8.60
2018-12-06T09:13:28.292Z,8.60
2018-12-06T09:18:29.468Z,8.70
2018-12-06T09:23:30.656Z,8.80
2018-12-06T09:28:31.837Z,8.90
2018-12-06T09:33:37.044Z,9.00
2018-12-06T09:38:38.238Z,9.10
2018-12-06T09:43:39.486Z,9.30
2018-12-06T09:48:40.682Z,9.40
2018-12-06T09:59:10.472Z,9.60
2018-12-06T10:04:11.650Z,9.70
2018-12-06T10:09:12.814Z,9.80
2018-12-06T10:14:13.990Z,10.00
2018-12-06T10:19:15.256Z,10.10
2018-12-06T10:24:16.442Z,10.50
2018-12-06T10:29:17.733Z,10.80
2018-12-06T10:34:18.926Z,11.20
2018-12-06T10:39:20.227Z,11.90
2018-12-06T10:44:27.234Z,12.60
2018-12-06T10:49:28.410Z,13.20
2018-12-06T10:54:29.605Z,14.80
2018-12-06T10:59:30.782Z,16.00
2018-12-06T11:04:34.358Z,14.60
2018-12-06T11:09:35.547Z,14.70
2018-12-06T11:14:36.724Z,14.10
2018-12-06T11:19:37.899Z,14.00
2018-12-06T11:24:39.186Z,13.80
2018-12-06T11:29:40.382Z,13.50
2018-12-06T11:34:41.597Z,13.10
2018-12-06T11:39:42.906Z,12.60
2018-12-06T11:44:44.074Z,12.50
2018-12-06T11:49:45.252Z,12.30
2018-12-06T11:54:46.442Z,12.30
2018-12-06T12:05:16.197Z,12.50
2018-12-06T12:10:17.375Z,12.60
2018-12-06T12:15:18.579Z,12.80
2018-12-06T12:20:19.900Z,12.70
2018-12-06T12:25:21.075Z,12.40
2018-12-06T12:30:22.283Z,12.30
2018-12-06T12:35:23.463Z,12.20
2018-12-06T12:40:24.634Z,12.10
2018-12-06T12:45:25.823Z,12.20
2018-12-06T12:50:27.027Z,12.20
2018-12-06T12:55:28.208Z,12.30
2018-12-06T13:00:29.391Z,12.50
2018-12-06T13:05:31.081Z,12.70
2018-12-06T13:10:32.514Z,12.80
2018-12-06T13:15:33.712Z,12.70
2018-12-06T13:20:34.930Z,12.70
2018-12-06T13:25:36.257Z,12.70
2018-12-06T13:30:37.587Z,12.60
2018-12-06T13:35:38.888Z,12.60
2018-12-06T13:40:40.067Z,12.60
2018-12-06T13:45:41.369Z,12.80
2018-12-06T13:50:42.585Z,13.00
2018-12-06T13:55:43.784Z,13.30
2018-12-06T14:00:45.207Z,13.50
2018-12-06T14:05:46.596Z,13.60
2018-12-06T14:10:47.792Z,13.50
2018-12-06T14:21:17.602Z,13.20
2018-12-06T14:26:18.835Z,13.20
2018-12-06T14:31:20.042Z,13.00
2018-12-06T14:36:21.250Z,12.90
2018-12-06T14:41:22.462Z,12.90
2018-12-06T14:46:23.686Z,12.80
2018-12-06T14:51:24.908Z,12.60
2018-12-06T14:56:26.311Z,12.30
2018-12-06T15:01:27.518Z,12.10
2018-12-06T15:06:28.718Z,11.80
2018-12-06T15:11:29.918Z,11.60
2018-12-06T15:16:31.131Z,11.50
2018-12-06T15:21:32.312Z,11.60
2018-12-06T15:26:33.477Z,11.70
2018-12-06T15:31:34.721Z,11.70
2018-12-06T15:36:36.053Z,11.80
2018-12-06T15:41:37.238Z,11.70
2018-12-06T15:46:38.446Z,11.80
2018-12-06T15:51:39.635Z,11.70
2018-12-06T15:56:40.826Z,11.60
2018-12-06T16:01:42.231Z,11.80
2018-12-06T16:06:43.424Z,11.80
2018-12-06T16:11:44.671Z,13.00
2018-12-06T16:16:45.865Z,11.50
2018-12-06T16:21:47.117Z,11.50
2018-12-06T16:26:48.411Z,11.50
2018-12-06T16:31:49.670Z,12.10
2018-12-06T16:36:50.872Z,11.30
2018-12-06T16:41:52.068Z,11.30
2018-12-06T16:46:53.294Z,11.30
2018-12-06T16:51:54.685Z,11.60
2018-12-06T16:56:55.887Z,11.60
2018-12-06T17:01:57.064Z,11.70
2018-12-06T17:06:58.245Z,11.80
2018-12-06T17:11:59.419Z,11.80
2018-12-06T17:17:00.653Z,11.80
2018-12-06T17:22:01.849Z,11.80
2018-12-06T17:27:03.174Z,11.60
2018-12-06T17:32:04.439Z,11.60
2018-12-06T17:37:05.917Z,11.50
2018-12-06T17:42:07.448Z,12.40
2018-12-06T17:47:08.973Z,11.50
2018-12-06T17:52:10.601Z,11.50
2018-12-06T17:57:12.410Z,11.50
2018-12-06T18:02:14.077Z,11.50
2018-12-06T18:07:15.497Z,11.70
2018-12-06T18:12:16.786Z,11.60
2018-12-06T18:17:18.228Z,11.60
2018-12-06T18:22:19.721Z,11.60
2018-12-06T18:27:20.958Z,11.80
2018-12-06T18:32:22.154Z,11.80
2018-12-06T18:37:23.373Z,11.80
2018-12-06T18:42:24.621Z,11.80
2018-12-06T18:47:26.061Z,11.80
2018-12-06T18:52:27.524Z,11.80
2018-12-06T18:57:29.077Z,11.70
2018-12-06T19:02:30.632Z,11.80
2018-12-06T19:07:32.612Z,11.80
2018-12-06T19:12:33.894Z,11.70
2018-12-06T19:17:35.198Z,11.60
2018-12-06T19:22:36.935Z,11.60
2018-12-06T19:27:39.027Z,11.70
2018-12-06T19:32:40.932Z,11.60
2018-12-06T19:37:42.785Z,11.60
2018-12-06T19:42:44.306Z,11.50
2018-12-06T19:47:45.559Z,11.60
2018-12-06T19:52:46.875Z,11.60
2018-12-06T19:57:48.090Z,11.60
2018-12-06T20:02:49.681Z,11.80
2018-12-06T20:07:50.940Z,11.80
2018-12-06T20:12:52.443Z,11.80
2018-12-06T20:17:53.700Z,11.80
2018-12-06T20:22:55.467Z,11.80
2018-12-06T20:27:57.057Z,12.30
2018-12-06T20:32:58.557Z,11.70
2018-12-06T20:37:59.809Z,11.90
2018-12-06T20:43:01.023Z,11.80
2018-12-06T20:48:02.293Z,11.80
2018-12-06T20:53:03.516Z,11.80
2018-12-06T20:58:04.694Z,11.80
2018-12-06T21:03:05.895Z,11.90
2018-12-06T21:08:07.087Z,11.90
2018-12-06T21:13:08.272Z,12.00
2018-12-06T21:18:09.494Z,12.00
2018-12-06T21:23:10.706Z,12.00
2018-12-06T21:28:11.881Z,12.00
2018-12-06T21:33:13.896Z,11.90
2018-12-06T21:38:15.076Z,11.80
2018-12-06T21:43:16.282Z,11.80
2018-12-06T21:48:17.460Z,11.70
2018-12-06T21:53:18.682Z,11.60
2018-12-06T21:58:19.867Z,11.50
2018-12-06T22:03:21.062Z,11.40
2018-12-06T22:08:22.266Z,11.40
2018-12-06T22:13:23.456Z,11.60
2018-12-06T22:18:24.618Z,11.70
2018-12-06T22:23:25.805Z,11.90
2018-12-06T22:28:33.866Z,11.90
2018-12-06T22:33:30.196Z,11.90
2018-12-06T22:38:34.343Z,11.90
2018-12-06T22:43:34.575Z,11.90
2018-12-06T22:48:35.755Z,12.00
2018-12-06T22:53:36.947Z,12.00
2018-12-06T22:58:38.130Z,11.90
2018-12-06T23:03:39.317Z,11.90
2018-12-06T23:08:40.535Z,11.80
2018-12-06T23:13:41.718Z,11.80
2018-12-06T23:18:42.886Z,11.80
2018-12-06T23:23:44.067Z,11.70
2018-12-06T23:28:45.254Z,11.80
2018-12-06T23:33:46.451Z,11.90
2018-12-06T23:38:47.674Z,11.90
2018-12-06T23:43:48.882Z,12.00
2018-12-06T23:48:50.069Z,12.00
2018-12-06T23:53:51.225Z,12.10
2018-12-06T23:58:52.395Z,12.10
